createdAt,value
2022-08-26T00:00:56.839Z,23.10
2022-08-26T00:02:59.007Z,23.08
2022-08-26T00:05:00.512Z,23.05
2022-08-26T00:07:02.109Z,23.03
2022-08-26T00:09:04.834Z,23.01
2022-08-26T00:11:10.091Z,22.98
2022-08-26T00:13:12.853Z,22.94
2022-08-26T00:15:16.450Z,22.93
2022-08-26T00:17:18.742Z,22.91
2022-08-26T00:19:21.173Z,22.87
2022-08-26T00:21:22.918Z,22.86
2022-08-26T00:23:25.617Z,22.84
2022-08-26T00:25:30.769Z,22.81
2022-08-26T00:27:37.042Z,22.81
2022-08-26T00:29:40.065Z,22.79
2022-08-26T00:31:42.100Z,22.78
2022-08-26T00:33:43.852Z,22.76
2022-08-26T00:35:47.428Z,22.73
2022-08-26T00:37:49.224Z,22.69
2022-08-26T00:39:50.772Z,22.69
2022-08-26T00:41:54.575Z,22.66
2022-08-26T00:43:56.209Z,22.65
2022-08-26T00:46:10.396Z,22.63
2022-08-26T00:48:14.687Z,22.60
2022-08-26T00:50:20.910Z,22.58
2022-08-26T00:52:24.281Z,22.56
2022-08-26T00:54:30.546Z,22.55
2022-08-26T00:56:38.183Z,22.55
2022-08-26T00:58:43.021Z,22.52
2022-08-26T01:00:45.358Z,22.50
2022-08-26T01:02:48.688Z,22.47
2022-08-26T01:04:57.936Z,22.47
2022-08-26T01:07:00.360Z,22.45
2022-08-26T01:09:02.546Z,22.45
2022-08-26T01:11:05.415Z,22.44
2022-08-26T01:13:11.320Z,22.43
2022-08-26T01:15:17.507Z,22.42
2022-08-26T01:17:19.349Z,22.42
2022-08-26T01:19:32.508Z,22.42
2022-08-26T01:21:41.329Z,22.41
2022-08-26T01:23:47.474Z,22.41
2022-08-26T01:25:55.968Z,22.42
2022-08-26T01:27:59.948Z,22.41
2022-08-26T01:30:02.518Z,22.40
2022-08-26T01:32:05.534Z,22.40
2022-08-26T01:34:17.644Z,22.39
2022-08-26T01:36:21.326Z,22.38
2022-08-26T01:38:23.796Z,22.39
2022-08-26T01:40:32.757Z,22.38
2022-08-26T01:42:34.393Z,22.37
2022-08-26T01:44:43.878Z,22.36
2022-08-26T01:46:48.862Z,22.34
2022-08-26T01:48:55.059Z,22.31
2022-08-26T01:50:57.391Z,22.30
2022-08-26T01:53:02.478Z,22.30
2022-08-26T01:55:04.910Z,22.27
2022-08-26T01:57:07.709Z,22.27
2022-08-26T01:59:13.218Z,22.25
2022-08-26T02:01:15.734Z,22.24
2022-08-26T02:03:18.900Z,22.23
2022-08-26T02:05:22.118Z,22.20
2022-08-26T02:07:26.625Z,22.18
2022-08-26T02:09:28.539Z,22.17
2022-08-26T02:11:33.503Z,22.15
2022-08-26T02:13:40.002Z,22.14
2022-08-26T02:15:44.441Z,22.11
2022-08-26T02:17:47.390Z,22.10
2022-08-26T02:19:50.400Z,22.08
2022-08-26T02:21:52.885Z,22.06
2022-08-26T02:23:56.197Z,22.03
2022-08-26T02:26:08.712Z,21.99
2022-08-26T02:28:12.305Z,21.91
2022-08-26T02:30:21.165Z,21.88
2022-08-26T02:32:23.386Z,21.86
2022-08-26T02:34:32.785Z,21.82
2022-08-26T02:36:34.639Z,21.79
2022-08-26T02:38:36.436Z,21.75
2022-08-26T02:40:41.376Z,21.73
2022-08-26T02:42:43.232Z,21.71
2022-08-26T02:44:44.744Z,21.69
2022-08-26T02:46:47.220Z,21.67
2022-08-26T02:48:48.881Z,21.67
2022-08-26T02:50:50.389Z,21.66
2022-08-26T02:52:53.121Z,21.64
2022-08-26T02:54:54.649Z,21.63
2022-08-26T02:56:56.726Z,21.60
2022-08-26T02:58:58.845Z,21.57
2022-08-26T03:01:01.566Z,21.55
2022-08-26T03:03:06.741Z,21.51
2022-08-26T03:05:08.816Z,21.46
2022-08-26T03:07:10.290Z,21.44
2022-08-26T03:09:15.974Z,21.43
2022-08-26T03:11:20.408Z,21.43
2022-08-26T03:13:23.271Z,21.40
2022-08-26T03:15:24.895Z,21.40
2022-08-26T03:17:26.950Z,21.38
2022-08-26T03:19:28.994Z,21.38
2022-08-26T03:21:33.211Z,21.36
2022-08-26T03:23:35.260Z,21.36
2022-08-26T03:25:36.773Z,21.34
2022-08-26T03:27:38.365Z,21.34
2022-08-26T03:29:58.946Z,21.31
2022-08-26T03:32:01.550Z,21.28
2022-08-26T03:34:04.192Z,21.26
2022-08-26T03:36:07.747Z,21.26
2022-08-26T03:38:10.066Z,21.25
2022-08-26T03:40:12.164Z,21.23
2022-08-26T03:42:14.941Z,21.22
2022-08-26T03:44:16.882Z,21.20
2022-08-26T03:46:20.611Z,21.19
2022-08-26T03:48:22.599Z,21.17
2022-08-26T03:50:25.281Z,21.16
2022-08-26T03:52:30.110Z,21.15
2022-08-26T03:54:31.727Z,21.14
2022-08-26T03:56:33.669Z,21.13
2022-08-26T03:58:35.483Z,21.12
2022-08-26T04:00:36.964Z,21.09
2022-08-26T04:02:38.703Z,21.07
2022-08-26T04:04:40.248Z,21.06
2022-08-26T04:06:43.324Z,21.03
2022-08-26T04:08:46.349Z,20.96
2022-08-26T04:10:47.833Z,20.93
2022-08-26T04:12:53.326Z,20.91
2022-08-26T04:14:54.866Z,20.89
2022-08-26T04:16:58.773Z,20.85
2022-08-26T04:19:00.605Z,20.84
2022-08-26T04:21:02.618Z,20.83
2022-08-26T04:23:09.568Z,20.82
2022-08-26T04:25:12.782Z,20.82
2022-08-26T04:27:14.355Z,20.82
2022-08-26T04:29:23.941Z,20.82
2022-08-26T04:31:26.299Z,20.82
2022-08-26T04:33:32.517Z,20.82
2022-08-26T04:35:35.198Z,20.83
2022-08-26T04:37:36.695Z,20.82
2022-08-26T04:39:38.196Z,20.78
2022-08-26T04:41:40.200Z,20.77
2022-08-26T04:43:41.976Z,20.77
2022-08-26T04:45:43.986Z,20.76
2022-08-26T04:47:46.786Z,20.77
2022-08-26T04:49:48.359Z,20.74
2022-08-26T04:51:49.904Z,20.71
2022-08-26T04:53:51.387Z,20.66
2022-08-26T04:55:55.287Z,20.67
2022-08-26T04:57:57.273Z,20.64
2022-08-26T04:59:58.766Z,20.66
2022-08-26T05:02:01.645Z,20.69
2022-08-26T05:04:05.015Z,20.72
2022-08-26T05:06:09.703Z,20.76
2022-08-26T05:08:12.938Z,20.78
2022-08-26T05:10:14.679Z,20.79
2022-08-26T05:12:16.425Z,20.83
2022-08-26T05:14:18.366Z,20.85
2022-08-26T05:16:19.988Z,20.83
2022-08-26T05:18:24.211Z,20.86
2022-08-26T05:20:26.316Z,20.88
2022-08-26T05:22:27.850Z,20.86
2022-08-26T05:24:30.202Z,20.87
2022-08-26T05:26:32.341Z,20.93
2022-08-26T05:28:33.883Z,20.95
2022-08-26T05:30:38.101Z,20.98
2022-08-26T05:32:40.120Z,21.00
2022-08-26T05:34:42.924Z,21.02
2022-08-26T05:36:44.609Z,21.05
2022-08-26T05:38:46.451Z,21.10
2022-08-26T05:40:52.602Z,21.13
2022-08-26T05:42:55.077Z,21.19
2022-08-26T05:44:56.656Z,21.27
2022-08-26T05:46:58.148Z,21.31
2022-08-26T05:48:59.738Z,21.37
2022-08-26T05:51:04.965Z,21.45
2022-08-26T05:53:08.938Z,21.48
2022-08-26T05:55:10.481Z,21.48
2022-08-26T05:57:13.829Z,21.52
2022-08-26T05:59:16.083Z,21.56
2022-08-26T06:01:28.035Z,21.61
2022-08-26T06:03:31.653Z,21.68
2022-08-26T06:05:38.421Z,21.71
2022-08-26T06:07:59.290Z,21.72
2022-08-26T06:10:28.170Z,21.79
2022-08-26T06:12:22.367Z,21.80
2022-08-26T06:14:25.916Z,21.85
2022-08-26T06:16:28.400Z,21.91
2022-08-26T06:18:36.230Z,21.92
2022-08-26T06:20:43.494Z,21.90
2022-08-26T06:23:14.581Z,22.01
2022-08-26T06:25:34.516Z,22.13
2022-08-26T06:27:36.751Z,22.12
2022-08-26T06:29:38.856Z,22.08
2022-08-26T06:31:40.356Z,22.14
2022-08-26T06:33:42.901Z,22.20
2022-08-26T06:35:46.810Z,22.30
2022-08-26T06:37:49.967Z,22.39
2022-08-26T06:39:51.547Z,22.51
2022-08-26T06:41:53.076Z,22.55
2022-08-26T06:43:54.670Z,22.60
2022-08-26T06:46:05.231Z,22.65
2022-08-26T06:48:07.639Z,22.65
2022-08-26T06:50:09.294Z,22.67
2022-08-26T06:52:11.258Z,22.77
2022-08-26T06:54:12.815Z,22.87
2022-08-26T06:56:17.313Z,22.90
2022-08-26T06:58:18.841Z,22.95
2022-08-26T07:00:21.369Z,23.06
2022-08-26T07:02:23.497Z,23.12
2022-08-26T07:04:29.949Z,23.23
2022-08-26T07:06:37.537Z,23.29
2022-08-26T07:08:40.914Z,23.36
2022-08-26T07:10:42.925Z,23.45
2022-08-26T07:12:47.258Z,23.54
2022-08-26T07:14:48.937Z,23.59
2022-08-26T07:16:50.962Z,23.67
2022-08-26T07:18:53.627Z,23.73
2022-08-26T07:20:55.118Z,23.76
2022-08-26T07:22:58.917Z,23.80
2022-08-26T07:25:00.489Z,23.89
2022-08-26T07:27:07.465Z,23.90
2022-08-26T07:29:12.496Z,23.98
2022-08-26T07:31:15.875Z,23.97
2022-08-26T07:33:17.986Z,23.96
2022-08-26T07:35:19.563Z,24.05
2022-08-26T07:37:21.063Z,24.12
2022-08-26T07:39:23.548Z,24.23
2022-08-26T07:41:25.775Z,24.30
2022-08-26T07:43:28.393Z,24.33
2022-08-26T07:45:30.866Z,24.35
2022-08-26T07:47:32.633Z,24.34
2022-08-26T07:49:34.481Z,24.34
2022-08-26T07:51:37.155Z,24.33
2022-08-26T07:53:39.852Z,24.30
2022-08-26T07:55:41.572Z,24.33
2022-08-26T07:57:43.191Z,24.39
2022-08-26T07:59:44.853Z,24.42
2022-08-26T08:01:47.579Z,24.47
2022-08-26T08:03:51.559Z,24.55
2022-08-26T08:05:53.347Z,24.63
2022-08-26T08:08:21.865Z,24.72
2022-08-26T08:10:21.037Z,24.82
2022-08-26T08:12:22.826Z,24.90
2022-08-26T08:14:24.316Z,24.94
2022-08-26T08:16:28.265Z,25.02
2022-08-26T08:18:34.134Z,25.08
2022-08-26T08:20:36.502Z,25.16
2022-08-26T08:22:38.140Z,25.19
2022-08-26T08:24:39.626Z,25.16
2022-08-26T08:26:41.796Z,25.15
2022-08-26T08:28:43.462Z,25.10
2022-08-26T08:30:45.665Z,25.16
2022-08-26T08:32:47.607Z,25.20
2022-08-26T08:34:49.675Z,25.26
2022-08-26T08:36:53.526Z,25.35
2022-08-26T08:38:55.850Z,25.44
2022-08-26T08:40:57.326Z,25.53
2022-08-26T08:43:13.516Z,25.62
2022-08-26T08:45:22.210Z,25.71
2022-08-26T08:47:29.529Z,25.73
2022-08-26T08:49:34.213Z,25.76
2022-08-26T08:51:40.404Z,25.85
2022-08-26T08:53:45.579Z,25.92
2022-08-26T08:56:01.955Z,25.98
2022-08-26T08:58:12.076Z,25.99
2022-08-26T09:00:19.680Z,26.00
2022-08-26T09:02:43.038Z,26.02
2022-08-26T09:05:07.878Z,26.10
2022-08-26T09:07:16.613Z,26.15
2022-08-26T09:09:39.586Z,26.24
2022-08-26T09:11:41.114Z,26.33
2022-08-26T09:13:49.978Z,26.41
2022-08-26T09:16:04.443Z,26.43
2022-08-26T09:18:32.110Z,26.40
2022-08-26T09:20:48.940Z,26.39
2022-08-26T09:22:51.677Z,26.32
2022-08-26T09:24:53.262Z,26.34
2022-08-26T09:26:57.686Z,26.39
2022-08-26T09:29:00.370Z,26.43
2022-08-26T09:31:24.244Z,26.52
2022-08-26T09:33:31.403Z,26.62
2022-08-26T09:35:36.594Z,26.72
2022-08-26T09:37:40.571Z,26.83
2022-08-26T09:39:42.670Z,26.89
2022-08-26T09:41:44.165Z,26.98
2022-08-26T09:44:09.170Z,27.05
2022-08-26T09:46:28.780Z,27.14
2022-08-26T09:48:36.870Z,27.27
2022-08-26T09:50:59.869Z,27.35
2022-08-26T09:53:16.596Z,27.39
2022-08-26T09:55:22.700Z,27.45
2022-08-26T09:57:34.241Z,27.58
2022-08-26T09:59:36.083Z,27.68
2022-08-26T10:01:44.712Z,27.77
2022-08-26T10:03:47.102Z,27.86
2022-08-26T10:06:02.584Z,27.91
2022-08-26T10:08:19.896Z,27.99
2022-08-26T10:10:33.477Z,28.10
2022-08-26T10:12:44.445Z,28.20
2022-08-26T10:14:51.991Z,28.20
2022-08-26T10:17:01.142Z,28.25
2022-08-26T10:19:10.583Z,28.31
2022-08-26T10:21:21.162Z,28.27
2022-08-26T10:23:27.766Z,28.23
2022-08-26T10:25:34.397Z,28.24
2022-08-26T10:27:53.924Z,28.36
2022-08-26T10:30:03.842Z,28.57
2022-08-26T10:32:13.821Z,28.71
2022-08-26T10:34:17.824Z,28.79
2022-08-26T10:37:05.051Z,28.87
2022-08-26T10:39:08.063Z,29.07
2022-08-26T10:41:24.144Z,29.22
2022-08-26T10:43:32.768Z,29.00
2022-08-26T10:45:38.691Z,29.03
2022-08-26T10:47:55.665Z,29.20
2022-08-26T10:50:03.339Z,29.42
2022-08-26T10:52:18.319Z,29.50
2022-08-26T10:54:31.539Z,29.28
2022-08-26T10:56:46.842Z,29.19
2022-08-26T10:58:57.840Z,29.30
2022-08-26T11:01:42.156Z,29.59
2022-08-26T11:04:10.358Z,30.09
2022-08-26T11:06:18.368Z,30.29
2022-08-26T11:08:19.838Z,30.19
2022-08-26T11:10:22.842Z,29.99
2022-08-26T11:12:37.471Z,29.79
2022-08-26T11:14:53.214Z,29.75
2022-08-26T11:16:59.783Z,29.80
2022-08-26T11:19:01.624Z,29.83
2022-08-26T11:21:03.618Z,29.98
2022-08-26T11:23:20.617Z,29.67
2022-08-26T11:25:29.933Z,29.02
2022-08-26T11:27:35.338Z,28.51
2022-08-26T11:29:57.498Z,28.09
2022-08-26T11:32:00.072Z,27.97
2022-08-26T11:34:07.166Z,28.10
2022-08-26T11:36:26.066Z,28.36
2022-08-26T11:38:29.496Z,28.43
2022-08-26T11:40:35.361Z,28.39
2022-08-26T11:42:36.971Z,28.13
2022-08-26T11:44:49.180Z,27.77
2022-08-26T11:46:57.471Z,27.62
2022-08-26T11:49:05.282Z,27.58
2022-08-26T11:51:13.590Z,27.66
2022-08-26T11:53:19.233Z,27.77
2022-08-26T11:55:23.470Z,27.83
2022-08-26T11:57:26.705Z,27.95
2022-08-26T11:59:38.726Z,28.05
2022-08-26T12:01:49.032Z,28.19
2022-08-26T12:03:52.237Z,28.30
2022-08-26T12:05:54.444Z,28.34
2022-08-26T12:07:57.224Z,28.31
2022-08-26T12:10:02.266Z,28.39
2022-08-26T12:12:18.488Z,28.37
2022-08-26T12:14:25.167Z,28.33
2022-08-26T12:16:40.420Z,28.24
2022-08-26T12:18:42.011Z,28.31
2022-08-26T12:20:46.506Z,28.30
2022-08-26T12:22:48.421Z,28.28
2022-08-26T12:24:53.812Z,28.24
2022-08-26T12:27:26.897Z,28.28
2022-08-26T12:29:29.767Z,28.42
2022-08-26T12:31:41.005Z,28.70
2022-08-26T12:33:42.985Z,28.95
2022-08-26T12:35:44.908Z,29.03
2022-08-26T12:37:50.804Z,29.11
2022-08-26T12:39:52.809Z,29.36
2022-08-26T12:42:02.624Z,29.51
2022-08-26T12:44:04.119Z,29.56
2022-08-26T12:46:06.961Z,29.28
2022-08-26T12:48:36.249Z,29.08
2022-08-26T12:50:44.471Z,28.97
2022-08-26T12:53:00.081Z,28.84
2022-08-26T12:55:19.916Z,28.79
2022-08-26T12:57:35.090Z,28.89
2022-08-26T12:59:36.670Z,28.85
2022-08-26T13:01:43.543Z,28.85
2022-08-26T13:03:46.346Z,28.92
2022-08-26T13:05:47.949Z,28.98
2022-08-26T13:08:09.267Z,29.05
2022-08-26T13:10:36.301Z,29.08
2022-08-26T13:12:38.144Z,28.99
2022-08-26T13:14:40.465Z,28.84
2022-08-26T13:16:42.663Z,28.75
2022-08-26T13:18:44.171Z,28.48
2022-08-26T13:20:45.746Z,28.30
2022-08-26T13:22:48.753Z,28.36
2022-08-26T13:25:00.133Z,28.21
2022-08-26T13:27:03.195Z,27.89
2022-08-26T13:29:09.578Z,27.68
2022-08-26T13:31:13.641Z,27.41
2022-08-26T13:33:16.732Z,27.38
2022-08-26T13:35:19.766Z,27.28
2022-08-26T13:37:22.256Z,27.21
2022-08-26T13:39:36.747Z,27.11
2022-08-26T13:41:38.436Z,27.19
2022-08-26T13:43:39.948Z,27.20
2022-08-26T13:45:41.424Z,27.23
2022-08-26T13:47:42.916Z,27.17
2022-08-26T13:49:44.480Z,27.18
2022-08-26T13:51:45.990Z,27.04
2022-08-26T13:53:47.649Z,26.90
2022-08-26T13:55:49.199Z,26.69
2022-08-26T13:57:50.690Z,26.50
2022-08-26T13:59:53.935Z,26.58
2022-08-26T14:01:55.474Z,26.39
2022-08-26T14:03:57.371Z,26.32
2022-08-26T14:05:59.360Z,25.99
2022-08-26T14:08:01.025Z,25.88
2022-08-26T14:10:02.882Z,25.50
2022-08-26T14:12:04.469Z,25.35
2022-08-26T14:14:05.980Z,25.37
2022-08-26T14:16:20.666Z,25.31
2022-08-26T14:18:29.289Z,25.24
2022-08-26T14:20:32.233Z,25.14
2022-08-26T14:22:33.904Z,24.95
2022-08-26T14:24:35.389Z,24.87
2022-08-26T14:26:36.895Z,24.80
2022-08-26T14:28:38.540Z,24.66
2022-08-26T14:30:42.091Z,24.58
2022-08-26T14:32:46.816Z,24.59
2022-08-26T14:34:48.848Z,24.54
2022-08-26T14:36:50.321Z,24.36
2022-08-26T14:38:52.208Z,24.46
2022-08-26T14:40:53.700Z,24.45
2022-08-26T14:42:55.296Z,24.26
2022-08-26T14:45:02.777Z,24.08
2022-08-26T14:47:06.626Z,24.04
2022-08-26T14:49:10.704Z,24.13
2022-08-26T14:51:12.431Z,23.93
2022-08-26T14:53:33.701Z,23.84
2022-08-26T14:55:38.677Z,23.71
2022-08-26T14:57:40.159Z,23.63
2022-08-26T14:59:49.624Z,23.57
2022-08-26T15:01:52.650Z,23.52
2022-08-26T15:03:54.210Z,23.52
2022-08-26T15:05:55.706Z,23.49
2022-08-26T15:07:57.226Z,23.40
2022-08-26T15:09:58.735Z,23.37
2022-08-26T15:12:00.988Z,23.33
2022-08-26T15:14:02.775Z,23.26
2022-08-26T15:16:04.468Z,23.15
2022-08-26T15:18:06.073Z,23.07
2022-08-26T15:20:09.280Z,23.03
2022-08-26T15:22:10.762Z,23.00
2022-08-26T15:24:13.056Z,22.99
2022-08-26T15:26:16.476Z,23.00
2022-08-26T15:28:17.972Z,22.91
2022-08-26T15:30:19.477Z,22.86
2022-08-26T15:32:21.079Z,22.86
2022-08-26T15:34:22.703Z,22.82
2022-08-26T15:36:24.247Z,22.74
2022-08-26T15:38:28.001Z,22.76
2022-08-26T15:40:29.676Z,22.77
2022-08-26T15:42:31.430Z,22.78
2022-08-26T15:44:34.093Z,22.76
2022-08-26T15:46:37.549Z,22.71
2022-08-26T15:48:40.760Z,22.66
2022-08-26T15:50:50.705Z,22.70
2022-08-26T15:52:52.189Z,22.75
2022-08-26T15:54:53.746Z,22.65
2022-08-26T15:56:55.259Z,22.66
2022-08-26T15:58:57.526Z,22.63
2022-08-26T16:01:00.269Z,22.64
2022-08-26T16:03:01.762Z,22.68
2022-08-26T16:05:03.665Z,22.63
2022-08-26T16:07:05.309Z,22.63
2022-08-26T16:09:08.000Z,22.60
2022-08-26T16:11:09.490Z,22.61
2022-08-26T16:13:14.762Z,22.56
2022-08-26T16:15:16.941Z,22.48
2022-08-26T16:17:18.489Z,22.45
2022-08-26T16:19:20.050Z,22.46
2022-08-26T16:21:24.634Z,22.49
2022-08-26T16:23:26.254Z,22.62
2022-08-26T16:25:28.880Z,22.74
2022-08-26T16:27:30.585Z,22.91
2022-08-26T16:29:32.540Z,22.98
2022-08-26T16:31:34.663Z,23.10
2022-08-26T16:33:37.831Z,23.19
2022-08-26T16:35:39.819Z,23.14
2022-08-26T16:37:42.097Z,23.07
2022-08-26T16:39:45.136Z,23.08
2022-08-26T16:41:46.885Z,23.11
2022-08-26T16:43:48.641Z,23.25
2022-08-26T16:45:50.139Z,23.45
2022-08-26T16:47:52.446Z,23.46
2022-08-26T16:49:54.010Z,23.47
2022-08-26T16:51:55.571Z,23.42
2022-08-26T16:54:01.453Z,23.52
2022-08-26T16:56:03.142Z,23.42
2022-08-26T16:58:04.684Z,23.41
2022-08-26T17:00:12.539Z,23.39
2022-08-26T17:02:14.009Z,23.40
2022-08-26T17:04:15.679Z,23.39
2022-08-26T17:06:17.399Z,23.42
2022-08-26T17:08:28.390Z,23.45
2022-08-26T17:10:31.645Z,23.28
2022-08-26T17:12:36.100Z,23.38
2022-08-26T17:14:37.569Z,23.43
2022-08-26T17:16:39.612Z,23.55
2022-08-26T17:18:41.499Z,23.53
2022-08-26T17:20:45.055Z,23.49
2022-08-26T17:22:48.583Z,23.44
2022-08-26T17:24:50.066Z,23.49
2022-08-26T17:26:53.542Z,23.58
2022-08-26T17:28:58.099Z,23.33
2022-08-26T17:31:00.106Z,23.34
2022-08-26T17:33:01.665Z,22.99
2022-08-26T17:35:13.773Z,22.92
2022-08-26T17:37:15.264Z,22.91
2022-08-26T17:39:16.911Z,22.74
2022-08-26T17:41:18.945Z,22.70
2022-08-26T17:43:20.645Z,22.54
2022-08-26T17:45:22.733Z,22.47
2022-08-26T17:47:24.335Z,22.37
2022-08-26T17:49:25.916Z,22.28
2022-08-26T17:51:27.722Z,22.45
2022-08-26T17:53:29.420Z,22.40
2022-08-26T17:55:30.987Z,22.53
2022-08-26T17:57:32.662Z,22.45
2022-08-26T17:59:42.343Z,22.40
2022-08-26T18:01:44.286Z,22.31
2022-08-26T18:03:45.976Z,22.22
2022-08-26T18:05:49.786Z,22.18
2022-08-26T18:07:51.634Z,22.05
2022-08-26T18:09:53.194Z,22.05
2022-08-26T18:11:54.691Z,22.03
2022-08-26T18:13:56.187Z,22.04
2022-08-26T18:15:57.753Z,22.07
2022-08-26T18:17:59.872Z,21.98
2022-08-26T18:20:01.959Z,21.94
2022-08-26T18:22:03.564Z,21.98
2022-08-26T18:24:05.594Z,21.91
2022-08-26T18:26:07.131Z,21.74
2022-08-26T18:28:13.011Z,21.63
2022-08-26T18:30:20.709Z,21.50
2022-08-26T18:32:22.210Z,21.50
2022-08-26T18:34:23.797Z,21.47
2022-08-26T18:36:36.597Z,21.36
2022-08-26T18:38:38.125Z,21.33
2022-08-26T18:40:45.747Z,21.32
2022-08-26T18:42:47.221Z,21.29
2022-08-26T18:44:55.561Z,21.24
2022-08-26T18:46:57.237Z,21.23
2022-08-26T18:48:58.935Z,21.15
2022-08-26T18:51:00.599Z,21.11
2022-08-26T18:53:02.541Z,21.16
2022-08-26T18:55:04.435Z,21.12
2022-08-26T18:57:05.942Z,21.11
2022-08-26T18:59:09.311Z,21.12
2022-08-26T19:01:12.438Z,21.13
2022-08-26T19:03:18.392Z,21.08
2022-08-26T19:05:21.014Z,21.13
2022-08-26T19:07:22.873Z,21.08
2022-08-26T19:09:26.314Z,21.06
2022-08-26T19:11:31.585Z,21.04
2022-08-26T19:13:35.479Z,21.08
2022-08-26T19:15:39.381Z,21.12
2022-08-26T19:17:41.354Z,21.00
2022-08-26T19:19:42.919Z,20.94
2022-08-26T19:21:47.241Z,20.91
2022-08-26T19:23:49.434Z,20.88
2022-08-26T19:25:53.214Z,20.78
2022-08-26T19:27:55.988Z,20.75
2022-08-26T19:29:58.386Z,20.68
2022-08-26T19:31:59.997Z,20.70
2022-08-26T19:35:02.849Z,20.65
2022-08-26T19:42:53.496Z,20.62
2022-08-26T19:45:24.388Z,20.60
2022-08-26T19:47:55.777Z,20.58
2022-08-26T19:49:57.441Z,20.56
2022-08-26T19:51:59.320Z,20.58
2022-08-26T19:54:01.661Z,20.58
2022-08-26T19:56:03.357Z,20.58
2022-08-26T19:58:05.233Z,20.60
2022-08-26T20:00:14.667Z,20.63
2022-08-26T20:02:16.573Z,20.60
2022-08-26T20:04:18.196Z,20.67
2022-08-26T20:06:20.327Z,20.68
2022-08-26T20:08:22.827Z,20.69
2022-08-26T20:10:24.728Z,20.64
2022-08-26T20:12:27.494Z,20.65
2022-08-26T20:14:29.954Z,20.59
2022-08-26T20:16:32.752Z,20.49
2022-08-26T20:18:52.595Z,20.50
2022-08-26T20:21:12.492Z,20.49
2022-08-26T20:23:14.023Z,20.43
2022-08-26T20:25:16.077Z,20.45
2022-08-26T20:27:17.977Z,20.44
2022-08-26T20:29:19.676Z,20.46
2022-08-26T20:31:21.686Z,20.47
2022-08-26T20:33:23.219Z,20.41
2022-08-26T20:35:24.797Z,20.40
2022-08-26T20:37:26.579Z,20.45
2022-08-26T20:39:31.020Z,20.51
2022-08-26T20:41:32.898Z,20.46
2022-08-26T20:43:34.405Z,20.56
2022-08-26T20:45:36.015Z,20.45
2022-08-26T20:47:37.648Z,20.45
2022-08-26T20:49:39.117Z,20.37
2022-08-26T20:51:45.484Z,20.37
2022-08-26T20:53:47.552Z,20.36
2022-08-26T20:55:51.381Z,20.32
2022-08-26T20:57:52.988Z,20.33
2022-08-26T20:59:54.501Z,20.29
2022-08-26T21:01:56.189Z,20.24
2022-08-26T21:03:57.715Z,20.26
2022-08-26T21:05:59.544Z,20.23
2022-08-26T21:08:01.017Z,20.20
2022-08-26T21:10:03.135Z,20.22
2022-08-26T21:12:05.122Z,20.23
2022-08-26T21:14:15.903Z,20.19
2022-08-26T21:16:19.650Z,20.17
2022-08-26T21:18:21.180Z,20.24
2022-08-26T21:20:23.819Z,20.20
2022-08-26T21:22:25.406Z,20.18
2022-08-26T21:24:27.013Z,20.16
2022-08-26T21:26:28.875Z,20.09
2022-08-26T21:28:30.960Z,20.04
2022-08-26T21:30:34.189Z,20.05
2022-08-26T21:32:35.886Z,20.06
2022-08-26T21:34:37.353Z,20.12
2022-08-26T21:36:38.919Z,20.06
2022-08-26T21:38:41.295Z,20.00
2022-08-26T21:40:42.825Z,20.01
2022-08-26T21:42:44.340Z,20.03
2022-08-26T21:44:46.501Z,19.99
2022-08-26T21:46:55.678Z,19.91
2022-08-26T21:49:00.334Z,19.92
2022-08-26T21:51:04.355Z,19.94
2022-08-26T21:53:06.239Z,19.86
2022-08-26T21:55:11.576Z,19.89
2022-08-26T21:57:13.658Z,19.91
2022-08-26T21:59:17.741Z,19.93
2022-08-26T22:01:21.710Z,19.90
2022-08-26T22:03:23.222Z,19.90
2022-08-26T22:05:24.716Z,19.90
2022-08-26T22:07:26.201Z,19.95
2022-08-26T22:09:30.962Z,19.94
2022-08-26T22:11:32.481Z,19.93
2022-08-26T22:13:36.905Z,19.86
2022-08-26T22:15:40.479Z,19.82
2022-08-26T22:17:41.966Z,19.79
2022-08-26T22:19:46.215Z,19.74
2022-08-26T22:21:51.950Z,19.75
2022-08-26T22:23:57.887Z,19.85
2022-08-26T22:26:00.267Z,19.83
2022-08-26T22:28:01.972Z,19.85
2022-08-26T22:30:03.949Z,19.88
2022-08-26T22:32:05.722Z,19.75
2022-08-26T22:34:10.508Z,19.73
2022-08-26T22:36:27.108Z,19.82
2022-08-26T22:38:28.606Z,19.89
2022-08-26T22:40:30.237Z,19.89
2022-08-26T22:42:31.950Z,19.75
2022-08-26T22:44:36.359Z,19.76
2022-08-26T22:46:38.589Z,19.73
2022-08-26T22:48:40.075Z,19.67
2022-08-26T22:50:42.756Z,19.68
2022-08-26T22:52:44.291Z,19.61
2022-08-26T22:54:45.861Z,19.62
2022-08-26T22:56:47.406Z,19.60
2022-08-26T22:58:49.170Z,19.54
2022-08-26T23:00:50.749Z,19.64
2022-08-26T23:02:56.769Z,19.69
2022-08-26T23:04:58.279Z,19.77
2022-08-26T23:06:59.786Z,19.70
2022-08-26T23:09:01.274Z,19.67
2022-08-26T23:11:02.860Z,19.59
2022-08-26T23:13:07.634Z,19.59
2022-08-26T23:15:11.525Z,19.60
2022-08-26T23:17:14.259Z,19.63
2022-08-26T23:19:18.241Z,19.65
2022-08-26T23:21:19.787Z,19.65
2022-08-26T23:23:21.733Z,19.60
2022-08-26T23:25:23.276Z,19.67
2022-08-26T23:27:26.905Z,19.65
2022-08-26T23:29:29.109Z,19.59
2022-08-26T23:31:31.298Z,19.62
2022-08-26T23:33:51.452Z,19.62
2022-08-26T23:35:52.924Z,19.58
2022-08-26T23:37:55.869Z,19.57
2022-08-26T23:40:10.312Z,19.51
2022-08-26T23:42:12.699Z,19.54
2022-08-26T23:44:14.227Z,19.56
2022-08-26T23:46:16.034Z,19.53
2022-08-26T23:48:17.692Z,19.47
2022-08-26T23:50:45.670Z,19.42
2022-08-26T23:53:06.216Z,19.39
2022-08-26T23:55:08.306Z,19.36
2022-08-26T23:57:10.158Z,19.36
2022-08-26T23:59:12.028Z,19.35
